sensor_id;sensor_type;location;lat;lon;timestamp;P1;durP1;ratioP1;P2;durP2;ratioP2
32625;SDS011;19038;50.922;11.880;2022-11-20T00:03:15;30.10;;;18.50;;
32625;SDS011;19038;50.922;11.880;2022-11-20T00:08:15;20.83;;;16.60;;
32625;SDS011;19038;50.922;11.880;2022-11-20T00:13:15;24.17;;;16.47;;
32625;SDS011;19038;50.922;11.880;2022-11-20T00:18:15;25.37;;;16.80;;
32625;SDS011;19038;50.922;11.880;2022-11-20T00:23:15;21.23;;;15.73;;
32625;SDS011;19038;50.922;11.880;2022-11-20T00:28:15;28.57;;;17.90;;
32625;SDS011;19038;50.922;11.880;2022-11-20T00:33:15;25.80;;;18.40;;
32625;SDS011;19038;50.922;11.880;2022-11-20T00:38:15;26.13;;;18.00;;
32625;SDS011;19038;50.922;11.880;2022-11-20T00:43:15;28.47;;;20.03;;
32625;SDS011;19038;50.922;11.880;2022-11-20T00:48:15;36.53;;;25.90;;
32625;SDS011;19038;50.922;11.880;2022-11-20T00:53:15;36.87;;;24.50;;
32625;SDS011;19038;50.922;11.880;2022-11-20T00:58:15;39.40;;;22.90;;
32625;SDS011;19038;50.922;11.880;2022-11-20T01:03:16;34.63;;;20.77;;
32625;SDS011;19038;50.922;11.880;2022-11-20T01:08:15;33.67;;;21.90;;
32625;SDS011;19038;50.922;11.880;2022-11-20T01:13:15;30.13;;;20.60;;
32625;SDS011;19038;50.922;11.880;2022-11-20T01:18:15;30.20;;;20.90;;
32625;SDS011;19038;50.922;11.880;2022-11-20T01:23:15;31.93;;;21.77;;
32625;SDS011;19038;50.922;11.880;2022-11-20T01:28:15;31.27;;;20.03;;
32625;SDS011;19038;50.922;11.880;2022-11-20T01:33:15;31.20;;;18.93;;
32625;SDS011;19038;50.922;11.880;2022-11-20T01:38:16;21.27;;;15.43;;
32625;SDS011;19038;50.922;11.880;2022-11-20T01:43:17;22.30;;;14.63;;
32625;SDS011;19038;50.922;11.880;2022-11-20T01:48:15;25.07;;;14.73;;
32625;SDS011;19038;50.922;11.880;2022-11-20T01:53:16;24.20;;;14.50;;
32625;SDS011;19038;50.922;11.880;2022-11-20T01:58:16;22.80;;;16.00;;
32625;SDS011;19038;50.922;11.880;2022-11-20T02:03:16;25.23;;;15.20;;
32625;SDS011;19038;50.922;11.880;2022-11-20T02:08:15;27.77;;;16.47;;
32625;SDS011;19038;50.922;11.880;2022-11-20T02:13:15;26.60;;;18.40;;
32625;SDS011;19038;50.922;11.880;2022-11-20T02:18:16;25.90;;;17.00;;
32625;SDS011;19038;50.922;11.880;2022-11-20T02:23:17;33.80;;;20.90;;
32625;SDS011;19038;50.922;11.880;2022-11-20T02:28:16;44.80;;;23.67;;
32625;SDS011;19038;50.922;11.880;2022-11-20T02:33:15;36.40;;;20.50;;
32625;SDS011;19038;50.922;11.880;2022-11-20T02:38:15;31.43;;;17.67;;
32625;SDS011;19038;50.922;11.880;2022-11-20T02:43:15;23.60;;;16.07;;
32625;SDS011;19038;50.922;11.880;2022-11-20T02:48:15;26.50;;;15.50;;
32625;SDS011;19038;50.922;11.880;2022-11-20T02:53:15;27.77;;;15.43;;
32625;SDS011;19038;50.922;11.880;2022-11-20T02:58:15;25.77;;;14.17;;
32625;SDS011;19038;50.922;11.880;2022-11-20T03:03:15;22.50;;;13.30;;
32625;SDS011;19038;50.922;11.880;2022-11-20T03:08:15;20.80;;;12.40;;
32625;SDS011;19038;50.922;11.880;2022-11-20T03:13:15;22.07;;;13.50;;
32625;SDS011;19038;50.922;11.880;2022-11-20T03:18:15;25.07;;;14.90;;
32625;SDS011;19038;50.922;11.880;2022-11-20T03:23:15;19.87;;;12.97;;
32625;SDS011;19038;50.922;11.880;2022-11-20T03:28:16;20.13;;;13.33;;
32625;SDS011;19038;50.922;11.880;2022-11-20T03:33:16;19.63;;;13.03;;
32625;SDS011;19038;50.922;11.880;2022-11-20T03:38:16;26.50;;;14.30;;
32625;SDS011;19038;50.922;11.880;2022-11-20T03:43:15;24.10;;;14.30;;
32625;SDS011;19038;50.922;11.880;2022-11-20T03:48:16;22.50;;;12.97;;
32625;SDS011;19038;50.922;11.880;2022-11-20T03:53:16;27.77;;;16.37;;
32625;SDS011;19038;50.922;11.880;2022-11-20T03:58:16;25.20;;;15.73;;
32625;SDS011;19038;50.922;11.880;2022-11-20T04:03:16;33.93;;;20.97;;
32625;SDS011;19038;50.922;11.880;2022-11-20T04:08:16;28.10;;;19.23;;
32625;SDS011;19038;50.922;11.880;2022-11-20T04:13:16;34.03;;;19.80;;
32625;SDS011;19038;50.922;11.880;2022-11-20T04:18:15;31.23;;;19.00;;
32625;SDS011;19038;50.922;11.880;2022-11-20T04:23:16;30.17;;;16.57;;
32625;SDS011;19038;50.922;11.880;2022-11-20T04:28:16;30.23;;;19.00;;
32625;SDS011;19038;50.922;11.880;2022-11-20T04:33:16;42.10;;;25.23;;
32625;SDS011;19038;50.922;11.880;2022-11-20T04:38:16;26.23;;;15.20;;
32625;SDS011;19038;50.922;11.880;2022-11-20T04:43:16;21.97;;;13.30;;
32625;SDS011;19038;50.922;11.880;2022-11-20T04:48:16;27.13;;;17.07;;
32625;SDS011;19038;50.922;11.880;2022-11-20T04:53:16;26.37;;;15.40;;
32625;SDS011;19038;50.922;11.880;2022-11-20T04:58:16;22.10;;;14.30;;
32625;SDS011;19038;50.922;11.880;2022-11-20T05:03:16;22.70;;;13.53;;
32625;SDS011;19038;50.922;11.880;2022-11-20T05:08:16;21.23;;;13.60;;
32625;SDS011;19038;50.922;11.880;2022-11-20T05:13:18;21.80;;;13.70;;
32625;SDS011;19038;50.922;11.880;2022-11-20T05:18:16;23.03;;;14.37;;
32625;SDS011;19038;50.922;11.880;2022-11-20T05:23:16;23.63;;;14.00;;
32625;SDS011;19038;50.922;11.880;2022-11-20T05:28:18;20.57;;;12.73;;
32625;SDS011;19038;50.922;11.880;2022-11-20T05:33:20;22.97;;;13.80;;
32625;SDS011;19038;50.922;11.880;2022-11-20T05:38:21;22.43;;;15.63;;
32625;SDS011;19038;50.922;11.880;2022-11-20T05:43:16;27.47;;;16.27;;
32625;SDS011;19038;50.922;11.880;2022-11-20T05:48:16;26.40;;;16.30;;
32625;SDS011;19038;50.922;11.880;2022-11-20T05:53:16;30.63;;;18.43;;
32625;SDS011;19038;50.922;11.880;2022-11-20T05:58:16;31.47;;;19.27;;
32625;SDS011;19038;50.922;11.880;2022-11-20T06:03:16;33.67;;;19.77;;
32625;SDS011;19038;50.922;11.880;2022-11-20T06:08:16;26.50;;;17.47;;
32625;SDS011;19038;50.922;11.880;2022-11-20T06:13:16;32.93;;;20.40;;
32625;SDS011;19038;50.922;11.880;2022-11-20T06:18:16;28.30;;;19.07;;
32625;SDS011;19038;50.922;11.880;2022-11-20T06:23:16;26.17;;;16.30;;
32625;SDS011;19038;50.922;11.880;2022-11-20T06:28:16;27.53;;;19.80;;
32625;SDS011;19038;50.922;11.880;2022-11-20T06:33:16;29.77;;;17.47;;
32625;SDS011;19038;50.922;11.880;2022-11-20T06:38:16;26.90;;;18.50;;
32625;SDS011;19038;50.922;11.880;2022-11-20T06:43:16;31.73;;;20.50;;
32625;SDS011;19038;50.922;11.880;2022-11-20T06:48:17;32.20;;;21.40;;
32625;SDS011;19038;50.922;11.880;2022-11-20T06:53:16;36.80;;;21.00;;
32625;SDS011;19038;50.922;11.880;2022-11-20T06:58:16;32.63;;;23.60;;
32625;SDS011;19038;50.922;11.880;2022-11-20T07:03:16;48.80;;;30.07;;
32625;SDS011;19038;50.922;11.880;2022-11-20T07:08:16;44.97;;;27.97;;
32625;SDS011;19038;50.922;11.880;2022-11-20T07:13:16;40.20;;;25.17;;
32625;SDS011;19038;50.922;11.880;2022-11-20T07:18:16;43.17;;;28.40;;
32625;SDS011;19038;50.922;11.880;2022-11-20T07:23:16;52.40;;;32.77;;
32625;SDS011;19038;50.922;11.880;2022-11-20T07:28:16;54.03;;;32.27;;
32625;SDS011;19038;50.922;11.880;2022-11-20T07:33:16;63.00;;;36.60;;
32625;SDS011;19038;50.922;11.880;2022-11-20T07:38:16;68.70;;;39.87;;
32625;SDS011;19038;50.922;11.880;2022-11-20T07:43:16;63.67;;;34.47;;
32625;SDS011;19038;50.922;11.880;2022-11-20T07:48:16;59.17;;;35.70;;
32625;SDS011;19038;50.922;11.880;2022-11-20T07:53:20;51.27;;;30.30;;
32625;SDS011;19038;50.922;11.880;2022-11-20T07:58:16;47.23;;;29.63;;
32625;SDS011;19038;50.922;11.880;2022-11-20T08:03:16;47.37;;;26.57;;
32625;SDS011;19038;50.922;11.880;2022-11-20T08:08:16;35.33;;;21.50;;
32625;SDS011;19038;50.922;11.880;2022-11-20T08:13:16;26.17;;;15.30;;
32625;SDS011;19038;50.922;11.880;2022-11-20T08:18:16;27.70;;;14.40;;
32625;SDS011;19038;50.922;11.880;2022-11-20T08:23:16;24.83;;;16.53;;
32625;SDS011;19038;50.922;11.880;2022-11-20T08:28:16;30.43;;;17.27;;
32625;SDS011;19038;50.922;11.880;2022-11-20T08:33:16;33.97;;;21.80;;
32625;SDS011;19038;50.922;11.880;2022-11-20T08:38:16;30.50;;;18.20;;
32625;SDS011;19038;50.922;11.880;2022-11-20T08:43:16;25.50;;;16.77;;
32625;SDS011;19038;50.922;11.880;2022-11-20T08:48:16;29.43;;;19.07;;
32625;SDS011;19038;50.922;11.880;2022-11-20T08:53:16;22.57;;;17.00;;
32625;SDS011;19038;50.922;11.880;2022-11-20T08:58:16;21.37;;;14.50;;
32625;SDS011;19038;50.922;11.880;2022-11-20T09:03:16;27.00;;;15.50;;
32625;SDS011;19038;50.922;11.880;2022-11-20T09:08:16;24.30;;;15.70;;
32625;SDS011;19038;50.922;11.880;2022-11-20T09:13:16;26.77;;;17.13;;
32625;SDS011;19038;50.922;11.880;2022-11-20T09:18:16;30.40;;;20.97;;
32625;SDS011;19038;50.922;11.880;2022-11-20T09:23:16;24.23;;;17.10;;
32625;SDS011;19038;50.922;11.880;2022-11-20T09:28:16;31.47;;;20.43;;
32625;SDS011;19038;50.922;11.880;2022-11-20T09:33:16;26.60;;;18.37;;
32625;SDS011;19038;50.922;11.880;2022-11-20T09:38:16;33.23;;;25.40;;
32625;SDS011;19038;50.922;11.880;2022-11-20T09:43:19;40.57;;;29.10;;
32625;SDS011;19038;50.922;11.880;2022-11-20T09:48:23;45.77;;;24.03;;
32625;SDS011;19038;50.922;11.880;2022-11-20T09:58:23;28.60;;;18.93;;
32625;SDS011;19038;50.922;11.880;2022-11-20T10:03:17;26.07;;;18.83;;
32625;SDS011;19038;50.922;11.880;2022-11-20T10:18:23;26.43;;;18.07;;
32625;SDS011;19038;50.922;11.880;2022-11-20T10:33:19;31.87;;;20.00;;
32625;SDS011;19038;50.922;11.880;2022-11-20T10:38:21;27.37;;;18.93;;
32625;SDS011;19038;50.922;11.880;2022-11-20T10:43:18;35.00;;;22.13;;
32625;SDS011;19038;50.922;11.880;2022-11-20T10:48:20;27.90;;;20.33;;
32625;SDS011;19038;50.922;11.880;2022-11-20T10:58:53;23.57;;;16.67;;
32625;SDS011;19038;50.922;11.880;2022-11-20T11:03:20;26.70;;;18.70;;
32625;SDS011;19038;50.922;11.880;2022-11-20T11:08:28;33.07;;;23.47;;
32625;SDS011;19038;50.922;11.880;2022-11-20T11:13:28;17.77;;;12.93;;
32625;SDS011;19038;50.922;11.880;2022-11-20T11:18:29;16.10;;;12.10;;
32625;SDS011;19038;50.922;11.880;2022-11-20T11:23:29;16.47;;;11.63;;
32625;SDS011;19038;50.922;11.880;2022-11-20T11:28:27;22.83;;;17.67;;
32625;SDS011;19038;50.922;11.880;2022-11-20T11:33:29;22.07;;;15.93;;
32625;SDS011;19038;50.922;11.880;2022-11-20T11:43:29;23.60;;;18.67;;
32625;SDS011;19038;50.922;11.880;2022-11-20T11:48:27;19.00;;;15.23;;
32625;SDS011;19038;50.922;11.880;2022-11-20T11:53:27;24.40;;;17.33;;
32625;SDS011;19038;50.922;11.880;2022-11-20T12:03:29;27.10;;;19.00;;
32625;SDS011;19038;50.922;11.880;2022-11-20T12:08:30;39.63;;;27.00;;
32625;SDS011;19038;50.922;11.880;2022-11-20T12:18:27;26.90;;;19.07;;
32625;SDS011;19038;50.922;11.880;2022-11-20T12:23:31;22.63;;;14.67;;
32625;SDS011;19038;50.922;11.880;2022-11-20T12:28:34;22.63;;;15.33;;
32625;SDS011;19038;50.922;11.880;2022-11-20T12:43:27;28.57;;;18.53;;
32625;SDS011;19038;50.922;11.880;2022-11-20T12:53:33;43.70;;;37.03;;
32625;SDS011;19038;50.922;11.880;2022-11-20T12:58:37;25.90;;;19.50;;
32625;SDS011;19038;50.922;11.880;2022-11-20T13:08:29;18.03;;;11.90;;
32625;SDS011;19038;50.922;11.880;2022-11-20T13:18:27;17.80;;;11.60;;
32625;SDS011;19038;50.922;11.880;2022-11-20T13:23:27;19.53;;;12.00;;
32625;SDS011;19038;50.922;11.880;2022-11-20T13:28:28;19.23;;;14.73;;
32625;SDS011;19038;50.922;11.880;2022-11-20T13:33:32;19.43;;;12.67;;
32625;SDS011;19038;50.922;11.880;2022-11-20T13:38:28;18.50;;;13.03;;
32625;SDS011;19038;50.922;11.880;2022-11-20T13:43:33;21.97;;;14.70;;
32625;SDS011;19038;50.922;11.880;2022-11-20T13:48:32;18.50;;;12.63;;
32625;SDS011;19038;50.922;11.880;2022-11-20T14:03:28;25.30;;;15.90;;
32625;SDS011;19038;50.922;11.880;2022-11-20T14:08:39;26.20;;;16.20;;
32625;SDS011;19038;50.922;11.880;2022-11-20T14:13:27;26.57;;;16.90;;
32625;SDS011;19038;50.922;11.880;2022-11-20T14:18:27;24.27;;;17.03;;
32625;SDS011;19038;50.922;11.880;2022-11-20T14:23:28;23.30;;;16.93;;
32625;SDS011;19038;50.922;11.880;2022-11-20T14:28:28;25.53;;;20.80;;
32625;SDS011;19038;50.922;11.880;2022-11-20T14:33:27;20.47;;;14.40;;
32625;SDS011;19038;50.922;11.880;2022-11-20T14:38:28;23.37;;;13.77;;
32625;SDS011;19038;50.922;11.880;2022-11-20T14:43:28;21.53;;;14.13;;
32625;SDS011;19038;50.922;11.880;2022-11-20T14:58:29;27.00;;;19.80;;
32625;SDS011;19038;50.922;11.880;2022-11-20T15:08:28;21.37;;;15.70;;
32625;SDS011;19038;50.922;11.880;2022-11-20T15:18:28;33.30;;;23.20;;
32625;SDS011;19038;50.922;11.880;2022-11-20T15:23:28;27.57;;;20.60;;
32625;SDS011;19038;50.922;11.880;2022-11-20T15:33:28;32.37;;;25.73;;
32625;SDS011;19038;50.922;11.880;2022-11-20T15:38:28;25.67;;;20.07;;
32625;SDS011;19038;50.922;11.880;2022-11-20T15:43:27;28.00;;;19.93;;
32625;SDS011;19038;50.922;11.880;2022-11-20T15:53:27;46.10;;;29.90;;
32625;SDS011;19038;50.922;11.880;2022-11-20T15:58:28;83.73;;;48.00;;
32625;SDS011;19038;50.922;11.880;2022-11-20T16:03:28;51.00;;;36.13;;
32625;SDS011;19038;50.922;11.880;2022-11-20T16:08:28;33.53;;;25.80;;
32625;SDS011;19038;50.922;11.880;2022-11-20T16:13:30;27.03;;;19.83;;
32625;SDS011;19038;50.922;11.880;2022-11-20T16:18:28;36.70;;;23.57;;
32625;SDS011;19038;50.922;11.880;2022-11-20T16:23:28;26.63;;;19.47;;
32625;SDS011;19038;50.922;11.880;2022-11-20T16:28:28;25.73;;;20.00;;
32625;SDS011;19038;50.922;11.880;2022-11-20T16:33:28;25.80;;;20.60;;
32625;SDS011;19038;50.922;11.880;2022-11-20T16:38:28;28.33;;;21.07;;
32625;SDS011;19038;50.922;11.880;2022-11-20T16:43:28;26.13;;;17.47;;
32625;SDS011;19038;50.922;11.880;2022-11-20T16:48:28;25.50;;;18.77;;
32625;SDS011;19038;50.922;11.880;2022-11-20T16:53:28;24.53;;;18.13;;
32625;SDS011;19038;50.922;11.880;2022-11-20T16:58:28;24.37;;;18.20;;
32625;SDS011;19038;50.922;11.880;2022-11-20T17:03:28;27.30;;;19.37;;
32625;SDS011;19038;50.922;11.880;2022-11-20T17:08:28;28.87;;;19.30;;
32625;SDS011;19038;50.922;11.880;2022-11-20T17:13:29;28.23;;;20.60;;
32625;SDS011;19038;50.922;11.880;2022-11-20T17:18:28;33.07;;;22.53;;
32625;SDS011;19038;50.922;11.880;2022-11-20T17:23:28;27.47;;;19.57;;
32625;SDS011;19038;50.922;11.880;2022-11-20T17:28:28;27.00;;;18.67;;
32625;SDS011;19038;50.922;11.880;2022-11-20T17:33:28;28.50;;;20.17;;
32625;SDS011;19038;50.922;11.880;2022-11-20T17:38:28;31.20;;;22.57;;
32625;SDS011;19038;50.922;11.880;2022-11-20T17:43:28;36.53;;;24.35;;
32625;SDS011;19038;50.922;11.880;2022-11-20T17:48:29;43.87;;;29.43;;
32625;SDS011;19038;50.922;11.880;2022-11-20T17:53:28;41.87;;;29.50;;
32625;SDS011;19038;50.922;11.880;2022-11-20T17:58:28;49.07;;;31.53;;
32625;SDS011;19038;50.922;11.880;2022-11-20T18:03:28;55.57;;;36.20;;
32625;SDS011;19038;50.922;11.880;2022-11-20T18:08:28;44.90;;;31.73;;
32625;SDS011;19038;50.922;11.880;2022-11-20T18:13:28;52.43;;;35.50;;
32625;SDS011;19038;50.922;11.880;2022-11-20T18:18:28;51.90;;;35.90;;
32625;SDS011;19038;50.922;11.880;2022-11-20T18:23:28;60.90;;;44.13;;
32625;SDS011;19038;50.922;11.880;2022-11-20T18:28:28;69.30;;;52.53;;
32625;SDS011;19038;50.922;11.880;2022-11-20T18:33:28;84.33;;;59.67;;
32625;SDS011;19038;50.922;11.880;2022-11-20T18:38:28;127.00;;;82.20;;
32625;SDS011;19038;50.922;11.880;2022-11-20T18:43:28;131.60;;;81.13;;
32625;SDS011;19038;50.922;11.880;2022-11-20T18:48:30;133.80;;;82.87;;
32625;SDS011;19038;50.922;11.880;2022-11-20T18:53:28;122.03;;;77.10;;
32625;SDS011;19038;50.922;11.880;2022-11-20T18:58:28;115.57;;;73.10;;
32625;SDS011;19038;50.922;11.880;2022-11-20T19:03:28;126.03;;;80.37;;
32625;SDS011;19038;50.922;11.880;2022-11-20T19:08:28;127.07;;;77.27;;
32625;SDS011;19038;50.922;11.880;2022-11-20T19:13:28;150.80;;;86.97;;
32625;SDS011;19038;50.922;11.880;2022-11-20T19:18:28;164.63;;;99.90;;
32625;SDS011;19038;50.922;11.880;2022-11-20T19:23:28;160.83;;;86.80;;
32625;SDS011;19038;50.922;11.880;2022-11-20T19:28:30;120.83;;;71.83;;
32625;SDS011;19038;50.922;11.880;2022-11-20T19:33:28;116.60;;;66.33;;
32625;SDS011;19038;50.922;11.880;2022-11-20T19:38:28;92.87;;;57.60;;
32625;SDS011;19038;50.922;11.880;2022-11-20T19:43:28;93.03;;;53.53;;
32625;SDS011;19038;50.922;11.880;2022-11-20T19:48:31;75.50;;;47.87;;
32625;SDS011;19038;50.922;11.880;2022-11-20T19:53:28;70.40;;;45.37;;
32625;SDS011;19038;50.922;11.880;2022-11-20T19:58:28;72.43;;;50.03;;
32625;SDS011;19038;50.922;11.880;2022-11-20T20:03:28;74.83;;;50.53;;
32625;SDS011;19038;50.922;11.880;2022-11-20T20:08:28;72.50;;;49.70;;
32625;SDS011;19038;50.922;11.880;2022-11-20T20:13:28;81.97;;;48.43;;
32625;SDS011;19038;50.922;11.880;2022-11-20T20:18:28;65.93;;;44.10;;
32625;SDS011;19038;50.922;11.880;2022-11-20T20:23:28;57.23;;;38.20;;
32625;SDS011;19038;50.922;11.880;2022-11-20T20:28:28;51.43;;;32.90;;
32625;SDS011;19038;50.922;11.880;2022-11-20T20:33:28;48.03;;;29.37;;
32625;SDS011;19038;50.922;11.880;2022-11-20T20:38:28;37.13;;;27.00;;
32625;SDS011;19038;50.922;11.880;2022-11-20T20:43:28;38.07;;;26.30;;
32625;SDS011;19038;50.922;11.880;2022-11-20T20:48:28;37.43;;;28.20;;
32625;SDS011;19038;50.922;11.880;2022-11-20T20:53:29;40.93;;;29.37;;
32625;SDS011;19038;50.922;11.880;2022-11-20T20:58:28;36.40;;;26.77;;
32625;SDS011;19038;50.922;11.880;2022-11-20T21:03:28;40.97;;;26.10;;
32625;SDS011;19038;50.922;11.880;2022-11-20T21:08:28;32.60;;;23.90;;
32625;SDS011;19038;50.922;11.880;2022-11-20T21:13:28;33.17;;;24.00;;
32625;SDS011;19038;50.922;11.880;2022-11-20T21:18:28;28.93;;;22.93;;
32625;SDS011;19038;50.922;11.880;2022-11-20T21:23:28;35.40;;;23.23;;
32625;SDS011;19038;50.922;11.880;2022-11-20T21:28:29;37.67;;;27.73;;
32625;SDS011;19038;50.922;11.880;2022-11-20T21:33:28;36.33;;;28.60;;
32625;SDS011;19038;50.922;11.880;2022-11-20T21:38:28;36.73;;;27.50;;
32625;SDS011;19038;50.922;11.880;2022-11-20T21:43:28;37.13;;;30.10;;
32625;SDS011;19038;50.922;11.880;2022-11-20T21:48:29;38.63;;;27.43;;
32625;SDS011;19038;50.922;11.880;2022-11-20T21:53:28;35.97;;;28.13;;
32625;SDS011;19038;50.922;11.880;2022-11-20T21:58:28;41.20;;;31.03;;
32625;SDS011;19038;50.922;11.880;2022-11-20T22:03:28;47.00;;;33.20;;
32625;SDS011;19038;50.922;11.880;2022-11-20T22:08:28;53.97;;;37.33;;
32625;SDS011;19038;50.922;11.880;2022-11-20T22:13:28;60.47;;;41.50;;
32625;SDS011;19038;50.922;11.880;2022-11-20T22:18:28;69.93;;;41.37;;
32625;SDS011;19038;50.922;11.880;2022-11-20T22:23:28;70.50;;;42.50;;
32625;SDS011;19038;50.922;11.880;2022-11-20T22:28:28;62.87;;;40.83;;
32625;SDS011;19038;50.922;11.880;2022-11-20T22:33:29;58.43;;;37.03;;
32625;SDS011;19038;50.922;11.880;2022-11-20T22:38:28;48.10;;;31.30;;
32625;SDS011;19038;50.922;11.880;2022-11-20T22:43:28;40.07;;;27.03;;
32625;SDS011;19038;50.922;11.880;2022-11-20T22:48:28;31.50;;;24.03;;
32625;SDS011;19038;50.922;11.880;2022-11-20T22:53:28;25.77;;;21.60;;
32625;SDS011;19038;50.922;11.880;2022-11-20T22:58:28;28.77;;;21.20;;
32625;SDS011;19038;50.922;11.880;2022-11-20T23:03:28;20.57;;;17.50;;
32625;SDS011;19038;50.922;11.880;2022-11-20T23:08:28;21.83;;;16.73;;
32625;SDS011;19038;50.922;11.880;2022-11-20T23:13:28;25.33;;;18.23;;
32625;SDS011;19038;50.922;11.880;2022-11-20T23:18:28;21.87;;;16.73;;
32625;SDS011;19038;50.922;11.880;2022-11-20T23:23:28;23.63;;;17.30;;
32625;SDS011;19038;50.922;11.880;2022-11-20T23:28:28;21.77;;;16.67;;
32625;SDS011;19038;50.922;11.880;2022-11-20T23:33:28;21.40;;;16.57;;
32625;SDS011;19038;50.922;11.880;2022-11-20T23:38:28;21.00;;;17.43;;
32625;SDS011;19038;50.922;11.880;2022-11-20T23:43:28;18.97;;;15.80;;
32625;SDS011;19038;50.922;11.880;2022-11-20T23:48:29;20.80;;;15.00;;
32625;SDS011;19038;50.922;11.880;2022-11-20T23:53:28;7.40;;;5.60;;
32625;SDS011;19038;50.922;11.880;2022-11-20T23:58:29;7.43;;;6.27;;
